Latest Weather Observations for Rowley Shoals

IDW60801

Issued at 9:33 pm WST Tuesday 27 September 2016 (issued every 30 minutes, with the page automatically refreshed every 10 minutes)

About weather observations | Map of weather stations | Latest weather observations for WA | Other Formats
Station Details ID: 200713 Name: ROWLEY SHOALS Lat: -17.52 Lon: 118.95 Height: 0.0 m
Data from the previous 72 hours. | See also: Recent months at Rowley Shoals
Date/Time
WST
Temp
°C
App
Temp
°C
Dew
Point
°C
Rel
Hum
%
Delta-T
°C
Wind Press
QNH
hPa
Press
MSL
hPa
Rain since
9am
mm
Dir  Spd
km/h
Gust
km/h
Spd
kts
Gust
kts
27/09:30pm 26.4 - - - - WSW 13 17 7 9 1011.9 1011.9 -
27/09:00pm 26.4 - - - - WSW 13 15 7 8 1011.8 1011.8 -
27/08:30pm 26.4 - - - - WSW 13 15 7 8 1011.5 1011.5 -
27/08:00pm 26.4 - - - - WSW 11 13 6 7 1011.3 1011.3 -
27/07:30pm 26.4 - - - - W 9 13 5 7 1011.0 1011.0 -
27/07:00pm 26.4 - - - - W 9 11 5 6 1010.7 1010.8 -
27/06:30pm 26.3 - - - - W 9 13 5 7 1010.3 1010.3 -
27/06:00pm 26.4 - - - - W 11 15 6 8 1010.0 1010.1 -
27/05:30pm 26.6 - - - - W 15 17 8 9 1009.7 1009.7 -
27/05:00pm 26.5 - - - - WNW 13 17 7 9 1009.4 1009.5 -
27/04:30pm 26.4 - - - - WNW 15 19 8 10 1009.4 1009.4 -
27/04:00pm 26.6 - - - - WNW 13 17 7 9 1009.3 1009.3 -
27/03:30pm 26.4 - - - - NW 13 15 7 8 1009.4 1009.4 -
27/03:00pm 26.7 - - - - NW 9 11 5 6 1009.6 1009.6 -
27/02:30pm 26.5 - - - - WNW 11 15 6 8 1009.6 1009.6 -
27/02:00pm 26.5 - - - - NW 9 11 5 6 1009.8 1009.7 -
27/01:41pm 26.7 - - - - NW 7 11 4 6 1009.9 1009.9 -
27/01:38pm 21.3 - - - - NW 7 11 4 6 1009.9 1009.9 -
27/01:35pm 14.0 - - - - NW 7 11 4 6 1009.8 1009.8 -
27/01:30pm 7.5 - - - - NW 7 11 4 6 1009.9 1009.9 -
27/01:29pm 8.0 - - - - NW 7 11 4 6 1009.9 1009.9 -
27/01:27pm -0.3 - - - - NW 7 11 4 6 1009.9 1009.9 -
27/01:24pm -6.8 - - - - NW 7 11 4 6 1009.9 1009.9 -
27/01:23pm -13.2 - - - - NW 7 11 4 6 1009.9 1009.9 -
27/01:21pm -19.5 - - - - NW 7 11 4 6 1009.9 1009.9 -
27/01:18pm -25.7 - - - - NW 7 11 4 6 1009.9 1009.9 -
27/01:16pm -31.1 - - - - NW 7 11 4 6 1009.9 1009.9 -
27/01:12pm -41.1 - - - - NW 7 9 4 5 1010.0 1010.0 -
27/01:07pm -33.8 - - - - NNW 6 9 3 5 1010.0 1010.0 -
27/01:00pm -33.9 - - - - NNW 6 9 3 5 1010.1 1010.0 -
27/12:30pm 26.8 - - - - NW 2 6 1 3 1010.5 1010.5 -
27/12:00pm 27.3 - - - - WNW 2 6 1 3 1010.7 1010.7 -
27/11:30am 27.0 - - - - CALM 0 0 0 0 1011.3 1011.3 -
27/11:00am 26.6 - - - - CALM 0 6 0 3 1011.7 1011.6 -
27/10:30am 26.9 - - - - CALM 0 0 0 0 1011.9 1011.9 -
27/10:00am 27.1 - - - - CALM 0 0 0 0 1012.2 1012.1 -
27/09:30am 26.6 - - - - CALM 0 0 0 0 1012.2 1012.2 -
27/09:00am 26.5 - - - - CALM 0 0 0 0 1012.2 1012.3 -
27/08:30am 25.5 - - - - SW 7 9 4 5 1012.0 1012.0 -
27/08:00am 25.6 - - - - SW 9 13 5 7 1011.9 1012.0 -
27/07:30am 25.4 - - - - SW 13 15 7 8 1011.7 1011.7 -
27/07:00am 25.4 - - - - SW 15 19 8 10 1011.1 1011.3 -
27/06:30am 25.5 - - - - WSW 17 19 9 10 1010.7 1010.7 -
27/06:00am 25.5 - - - - WSW 17 19 9 10 1010.6 1010.6 -
27/05:30am 25.3 - - - - WSW 17 19 9 10 1010.5 1010.5 -
27/05:00am 25.4 - - - - WSW 17 20 9 11 1010.5 1010.6 -
27/04:30am 25.5 - - - - WSW 17 20 9 11 1010.2 1010.2 -
27/04:00am 25.5 - - - - W 17 20 9 11 1009.9 1009.9 -
27/03:30am 25.5 - - - - W 20 24 11 13 1009.9 1009.9 -
27/03:00am 25.5 - - - - W 20 22 11 12 1009.9 1009.9 -
27/02:30am 25.5 - - - - W 22 28 12 15 1009.9 1009.9 -
27/02:00am 25.6 - - - - W 20 24 11 13 1010.1 1010.0 -
27/01:30am 25.5 - - - - W 20 22 11 12 1010.4 1010.4 -
27/01:00am 25.5 - - - - W 19 20 10 11 1010.7 1010.6 -
27/12:30am 25.5 - - - - W 19 20 10 11 1010.8 1010.8 -
27/12:00am 25.7 - - - - WNW 17 20 9 11 1011.1 1011.0 -
 
Date/Time
WST
Temp
°C
App
Temp
°C
Dew
Point
°C
Rel
Hum
%
Delta-T
°C
Wind Press
QNH
hPa
Press
MSL
hPa
Rain since
9am
mm
Dir  Spd
km/h
Gust
km/h
Spd
kts
Gust
kts
26/11:30pm 25.7 - - - - NW 17 20 9 11 1011.4 1011.4 -
26/11:00pm 25.7 - - - - NW 17 19 9 10 1011.7 1011.7 -
26/10:30pm 25.4 - - - - NW 15 17 8 9 1011.9 1011.9 -
26/10:00pm 25.6 - - - - NW 17 20 9 11 1012.0 1011.9 -
26/09:30pm 25.6 - - - - WNW 17 22 9 12 1012.2 1012.2 -
26/09:00pm 25.6 - - - - WNW 19 20 10 11 1012.0 1012.1 -
26/08:30pm 25.5 - - - - WNW 20 24 11 13 1011.7 1011.7 -
26/08:00pm 25.6 - - - - NW 17 20 9 11 1011.5 1011.5 -
26/07:30pm 25.5 - - - - NW 17 20 9 11 1011.4 1011.4 -
26/07:00pm 25.5 - - - - NW 17 20 9 11 1011.1 1011.2 -
26/06:30pm 25.5 - - - - NW 15 19 8 10 1011.0 1011.0 -
26/06:00pm 25.5 - - - - NNW 13 19 7 10 1010.5 1010.6 -
26/05:30pm 25.3 - - - - NNW 13 17 7 9 1010.2 1010.2 -
26/05:00pm 25.4 - - - - NW 11 13 6 7 1009.8 1009.9 -
26/04:30pm 25.5 - - - - NNW 9 13 5 7 1009.5 1009.5 -
26/04:00pm 25.8 - - - - WNW 11 13 6 7 1009.5 1009.4 -
26/03:30pm 25.8 - - - - WNW 11 15 6 8 1009.5 1009.5 -
26/03:00pm 25.8 - - - - W 11 15 6 8 1009.4 1009.3 -
26/02:30pm 25.5 - - - - W 13 17 7 9 1009.5 1009.5 -
26/02:00pm 25.7 - - - - W 11 15 6 8 1009.7 1009.7 -
26/01:30pm 25.6 - - - - W 11 17 6 9 1009.9 1009.9 -
26/01:00pm 25.6 - - - - W 9 15 5 8 1009.9 1009.9 -
26/12:30pm 25.7 - - - - W 13 15 7 8 1010.2 1010.2 -
26/12:00pm 25.7 - - - - W 13 15 7 8 1010.6 1010.5 -
26/11:30am 25.4 - - - - W 15 17 8 9 1010.9 1010.9 -
26/11:00am 25.3 - - - - W 13 19 7 10 1011.2 1011.1 -
26/10:30am 25.4 - - - - WSW 15 19 8 10 1011.5 1011.5 -
26/10:00am 25.2 - - - - WSW 17 20 9 11 1011.5 1011.5 -
26/09:30am 25.3 - - - - WSW 15 24 8 13 1011.7 1011.7 -
26/09:00am 25.2 - - - - WSW 20 24 11 13 1011.7 1011.7 -
26/08:30am 25.2 - - - - WSW 19 24 10 13 1011.6 1011.6 -
26/08:00am 25.0 - - - - WSW 19 22 10 12 1011.0 1011.2 -
26/07:30am 25.0 - - - - WSW 20 24 11 13 1010.7 1010.7 -
26/07:00am 24.9 - - - - WSW 24 28 13 15 1010.4 1010.5 -
26/06:30am 24.9 - - - - WSW 24 30 13 16 1010.2 1010.2 -
26/06:00am 25.0 - - - - SW 24 28 13 15 1009.9 1010.0 -
26/05:30am 24.7 - - - - SW 26 30 14 16 1009.6 1009.6 -
26/05:00am 24.7 - - - - WSW 26 30 14 16 1009.6 1009.6 -
26/04:30am 24.9 - - - - SW 26 30 14 16 1009.3 1009.3 -
26/04:00am 24.9 - - - - WSW 24 30 13 16 1009.1 1009.2 -
26/03:30am 24.7 - - - - SW 24 28 13 15 1009.3 1009.3 -
26/03:00am 24.8 - - - - WSW 24 30 13 16 1009.4 1009.3 -
26/02:30am 24.9 - - - - WSW 26 32 14 17 1009.7 1009.7 -
26/02:00am 24.8 - - - - WSW 24 28 13 15 1009.9 1009.8 -
26/01:30am 25.2 - - - - WSW 22 26 12 14 1010.1 1010.1 -
26/01:00am 25.2 - - - - WSW 22 26 12 14 1010.2 1010.1 -
26/12:30am 25.4 - - - - SW 20 28 11 15 1010.4 1010.4 -
26/12:00am 25.2 - - - - SW 20 26 11 14 1010.8 1010.7 -
 
Date/Time
WST
Temp
°C
App
Temp
°C
Dew
Point
°C
Rel
Hum
%
Delta-T
°C
Wind Press
QNH
hPa
Press
MSL
hPa
Rain since
9am
mm
Dir  Spd
km/h
Gust
km/h
Spd
kts
Gust
kts
25/11:30pm 25.4 - - - - SW 20 24 11 13 1011.2 1011.2 -
25/11:00pm 25.1 - - - - SW 20 24 11 13 1011.4 1011.4 -
25/10:30pm 25.4 - - - - SW 24 28 13 15 1011.7 1011.7 -
25/10:00pm 25.4 - - - - SW 20 26 11 14 1011.7 1011.7 -
25/09:30pm 25.2 - - - - SW 19 22 10 12 1011.8 1011.8 -
25/09:00pm 25.7 - - - - SW 17 20 9 11 1011.5 1011.6 -
25/08:30pm 25.3 - - - - SW 19 24 10 13 1011.5 1011.5 -
25/08:00pm 25.3 - - - - SW 20 24 11 13 1011.1 1011.2 -
25/07:30pm 25.2 - - - - SW 20 26 11 14 1010.9 1010.9 -
25/07:00pm 25.2 - - - - SW 20 24 11 13 1010.4 1010.6 -
25/06:30pm 25.2 - - - - SW 20 24 11 13 1010.2 1010.2 -
25/06:00pm 25.3 - - - - SW 17 22 9 12 1009.8 1009.8 -
25/05:30pm 25.6 - - - - SW 19 22 10 12 1009.5 1009.5 -
25/05:00pm 25.5 - - - - SW 17 22 9 12 1009.3 1009.3 -
25/04:30pm 25.3 - - - - SW 17 22 9 12 1009.1 1009.1 -
25/04:00pm 25.4 - - - - SW 22 30 12 16 1009.1 1009.1 -
25/03:30pm 25.4 - - - - SW 22 28 12 15 1009.0 1009.0 -
25/03:00pm 25.5 - - - - SW 20 24 11 13 1009.1 1009.1 -
25/02:30pm 25.5 - - - - SW 22 28 12 15 1009.2 1009.2 -
25/02:00pm 26.1 - - - - SW 20 26 11 14 1009.2 1009.2 -
25/01:30pm 25.6 - - - - SW 22 26 12 14 1009.5 1009.5 -
25/01:00pm 25.4 - - - - WSW 20 26 11 14 1009.9 1009.7 -
25/12:30pm 25.6 - - - - SW 19 24 10 13 1010.1 1010.1 -
25/12:00pm 25.4 - - - - SW 20 24 11 13 1010.4 1010.2 -
25/11:30am 25.3 - - - - SW 20 24 11 13 1010.7 1010.7 -
25/11:00am 25.4 - - - - SW 19 24 10 13 1011.3 1011.1 -
25/10:30am 25.4 - - - - SW 19 22 10 12 1011.4 1011.4 -
25/10:00am 25.5 - - - - SW 17 20 9 11 1011.4 1011.4 -
25/09:30am 25.5 - - - - SSW 19 20 10 11 1011.4 1011.4 -
25/09:00am 25.4 - - - - SW 19 24 10 13 1011.5 1011.5 -
25/08:30am 25.5 - - - - SSW 17 20 9 11 1011.3 1011.3 -
25/08:00am 25.5 - - - - SW 17 20 9 11 1011.2 1011.2 -
25/07:30am 25.6 - - - - SW 17 22 9 12 1010.9 1010.9 -
25/07:00am 25.7 - - - - SW 17 19 9 10 1010.8 1010.8 -
25/06:30am 25.7 - - - - WSW 17 20 9 11 1010.6 1010.6 -
25/06:00am 25.9 - - - - WSW 17 20 9 11 1010.3 1010.3 -
25/05:30am 25.8 - - - - WSW 19 20 10 11 1010.0 1010.0 -
25/05:00am 26.0 - - - - W 15 19 8 10 1009.5 1009.6 -
25/04:30am 26.0 - - - - W 15 17 8 9 1009.1 1009.1 -
25/04:00am 25.9 - - - - W 15 17 8 9 1009.1 1009.1 -
25/03:30am 26.0 - - - - W 13 17 7 9 1009.0 1009.0 -
25/03:00am 26.0 - - - - W 15 17 8 9 1009.1 1009.1 -
25/02:30am 26.3 - - - - W 13 15 7 8 1009.0 1009.0 -
25/02:00am 26.1 - - - - W 13 17 7 9 1009.1 1009.0 -
25/01:30am 26.2 - - - - W 13 17 7 9 1009.3 1009.3 -
25/01:00am 26.4 - - - - W 13 17 7 9 1009.5 1009.4 -
25/12:30am 26.4 - - - - W 17 20 9 11 1009.6 1009.6 -
25/12:00am 26.3 - - - - W 19 20 10 11 1009.9 1009.8 -
 
Date/Time
WST
Temp
°C
App
Temp
°C
Dew
Point
°C
Rel
Hum
%
Delta-T
°C
Wind Press
QNH
hPa
Press
MSL
hPa
Rain since
9am
mm
Dir  Spd
km/h
Gust
km/h
Spd
kts
Gust
kts
24/11:30pm 26.3 - - - - W 17 20 9 11 1010.2 1010.2 -
24/11:00pm 26.3 - - - - W 17 19 9 10 1010.4 1010.3 -
24/10:30pm 26.3 - - - - W 15 19 8 10 1010.6 1010.6 -
24/10:00pm 26.2 - - - - W 13 15 7 8 1010.7 1010.7 -

Other Formats:

Comma delimited format used in spreadsheet applications
http://www.bom.gov.au/fwo/IDW60801/IDW60801.94207.axf

JavaScript Object Notation format (JSON) in row-major order
http://www.bom.gov.au/fwo/IDW60801/IDW60801.94207.json